Time;durP1;ratioP1;P1;durP2;ratioP2;P2;SDS_P1;SDS_P2;PMS_P1;PMS_P2;Temp;Humidity;BMP_temperature;BMP_pressure;BME280_temperature;BME280_humidity;BME280_pressure;Samples;Min_cycle;Max_cycle;Signal;HPM_P1;HPM_P2
2021/04/25 00:01:37;;;;;;;12.80;8.50;;;;;;;2.92;59.54;101494.22;1749695;82;20954;-68
2021/04/25 00:04:07;;;;;;;10.30;6.15;;;;;;;2.90;59.43;101490.34;1749731;82;21371;-68
2021/04/25 00:06:36;;;;;;;10.68;5.90;;;;;;;2.91;59.21;101482.13;1749619;80;21018;-70
2021/04/25 00:09:05;;;;;;;10.10;5.85;;;;;;;2.89;59.01;101487.77;1749803;82;21038;-69
2021/04/25 00:11:34;;;;;;;11.00;5.85;;;;;;;2.89;58.82;101490.36;1749646;82;21084;-69
2021/04/25 00:14:03;;;;;;;10.90;5.35;;;;;;;2.89;58.70;101495.13;1749774;82;21572;-68
2021/04/25 00:16:32;;;;;;;10.30;5.58;;;;;;;2.90;59.02;101494.68;1749779;82;21516;-68
2021/04/25 00:19:01;;;;;;;10.03;5.83;;;;;;;2.90;59.76;101492.09;1749774;80;20955;-68
2021/04/25 00:21:29;;;;;;;8.53;5.03;;;;;;;2.87;60.55;101495.58;1749655;82;20959;-69
2021/04/25 00:23:57;;;;;;;10.40;5.25;;;;;;;2.86;60.88;101494.30;1749659;82;20931;-70
2021/04/25 00:26:25;;;;;;;9.15;5.05;;;;;;;2.82;61.60;101499.95;1749726;80;21003;-68
2021/04/25 00:28:53;;;;;;;9.65;5.03;;;;;;;2.79;61.63;101497.86;1749765;82;21432;-69
2021/04/25 00:31:22;;;;;;;9.85;5.00;;;;;;;2.75;61.88;101494.44;1749602;82;21200;-68
2021/04/25 00:33:50;;;;;;;10.03;5.60;;;;;;;2.73;60.72;101500.08;1749768;82;21377;-69
2021/04/25 00:36:19;;;;;;;9.53;5.20;;;;;;;2.71;61.01;101500.53;1749733;82;20931;-69
2021/04/25 00:38:47;;;;;;;9.13;5.47;;;;;;;2.68;61.58;101502.73;1749976;81;21456;-68
2021/04/25 00:41:15;;;;;;;11.33;5.85;;;;;;;2.66;62.18;101495.42;1749922;82;21428;-69
2021/04/25 00:43:43;;;;;;;12.68;6.08;;;;;;;2.63;63.10;101494.63;1749806;82;21137;-68
2021/04/25 00:46:13;;;;;;;16.07;7.25;;;;;;;2.59;62.89;101496.38;1749930;82;21030;-69
2021/04/25 00:48:43;;;;;;;16.82;9.08;;;;;;;2.56;61.06;101490.41;1749768;82;20998;-68
2021/04/25 00:51:12;;;;;;;14.03;7.35;;;;;;;2.56;60.47;101489.11;1743820;82;20943;-68
2021/04/25 00:53:44;;;;;;;14.15;7.25;;;;;;;2.55;59.95;101489.97;1735847;82;21389;-72
2021/04/25 00:56:13;;;;;;;19.00;8.03;;;;;;;2.56;59.69;101489.96;1735784;82;20960;-69
2021/04/25 00:58:42;;;;;;;15.48;7.22;;;;;;;2.55;59.45;101490.81;1735923;81;21595;-69
2021/04/25 01:01:10;;;;;;;13.95;7.50;;;;;;;2.55;59.34;101494.70;1735883;81;21342;-69
2021/04/25 01:03:38;;;;;;;19.02;7.87;;;;;;;2.54;59.33;101489.56;1735799;81;20892;-69
2021/04/25 01:06:07;;;;;;;15.08;7.62;;;;;;;2.53;59.24;101491.27;1735858;82;21776;-69
2021/04/25 01:08:34;;;;;;;12.00;6.80;;;;;;;2.52;59.27;101488.73;1735775;81;20975;-68
2021/04/25 01:11:03;;;;;;;13.48;8.25;;;;;;;2.53;59.14;101490.42;1735788;82;21023;-69
2021/04/25 01:13:31;;;;;;;16.60;7.42;;;;;;;2.51;59.11;101489.59;1735820;82;20952;-70
2021/04/25 01:15:59;;;;;;;15.93;7.70;;;;;;;2.52;59.14;101488.73;1735824;82;20912;-70
2021/04/25 01:18:27;;;;;;;15.10;6.80;;;;;;;2.51;59.12;101487.00;1735840;82;21456;-69
2021/04/25 01:21:04;;;;;;;18.92;8.13;;;;;;;2.52;58.99;101490.02;1735773;82;21003;-68
2021/04/25 01:23:32;;;;;;;17.10;6.97;;;;;;;2.52;58.84;101493.91;1733704;82;21027;-69
2021/04/25 01:26:00;;;;;;;17.95;7.75;;;;;;;2.51;58.79;101491.73;1735849;82;20944;-69
2021/04/25 01:28:30;;;;;;;16.65;7.05;;;;;;;2.51;58.86;101494.77;1735902;81;20936;-70
2021/04/25 01:30:59;;;;;;;15.70;7.17;;;;;;;2.52;58.83;101494.75;1735776;81;21896;-69
2021/04/25 01:33:28;;;;;;;19.98;8.70;;;;;;;2.52;58.80;101488.73;1735734;82;20968;-70
2021/04/25 01:35:56;;;;;;;17.12;7.92;;;;;;;2.51;58.80;101486.55;1735898;82;21015;-70
2021/04/25 01:38:24;;;;;;;14.65;7.45;;;;;;;2.48;58.88;101488.74;1735829;82;21556;-70
2021/04/25 01:40:52;;;;;;;13.85;5.53;;;;;;;2.49;58.88;101488.33;1735799;82;21031;-69
2021/04/25 01:43:20;;;;;;;21.00;7.80;;;;;;;2.47;58.90;101483.61;1735782;82;21810;-70
2021/04/25 01:45:49;;;;;;;15.30;8.90;;;;;;;2.46;58.84;101487.91;1735880;81;21055;-70
2021/04/25 01:48:17;;;;;;;13.85;7.05;;;;;;;2.47;58.86;101488.78;1735787;82;20944;-69
2021/04/25 01:50:44;;;;;;;11.83;6.10;;;;;;;2.46;58.93;101481.88;1737023;81;21027;-68
2021/04/25 01:53:13;;;;;;;14.25;7.30;;;;;;;2.47;58.88;101490.08;1749805;81;20951;-69
2021/04/25 01:55:41;;;;;;;12.70;7.40;;;;;;;2.46;58.95;101494.82;1749808;82;21555;-68
2021/04/25 01:58:10;;;;;;;16.15;6.72;;;;;;;2.46;59.00;101488.34;1749765;82;20937;-69
2021/04/25 02:00:43;;;;;;;13.05;6.35;;;;;;;2.43;59.18;101502.63;1749844;82;20935;-69
2021/04/25 02:03:14;;;;;;;18.67;7.60;;;;;;;2.42;59.20;101504.79;1749792;82;20939;-70
2021/04/25 02:05:43;;;;;;;13.13;5.62;;;;;;;2.40;59.50;101498.77;1749889;82;21023;-69
2021/04/25 02:08:12;;;;;;;15.20;5.97;;;;;;;2.39;59.64;101501.80;1749838;81;21739;-68
2021/04/25 02:10:42;;;;;;;15.70;6.45;;;;;;;2.36;59.73;101505.73;1749659;82;21165;-69
2021/04/25 02:13:10;;;;;;;12.58;5.70;;;;;;;2.35;59.76;101500.56;1749889;82;21501;-70
2021/04/25 02:15:39;;;;;;;12.88;5.67;;;;;;;2.32;59.99;101505.34;1749735;82;20935;-69
2021/04/25 02:18:11;;;;;;;15.23;6.53;;;;;;;2.31;60.01;101508.79;1749782;82;20962;-68
2021/04/25 02:20:39;;;;;;;11.08;5.67;;;;;;;2.27;60.05;101507.98;1749795;82;21444;-68
2021/04/25 02:23:07;;;;;;;8.60;5.40;;;;;;;2.26;59.98;101500.23;1749709;82;20923;-69
2021/04/25 02:25:35;;;;;;;15.98;5.72;;;;;;;2.24;59.97;101506.71;1749728;82;20959;-69
2021/04/25 02:28:03;;;;;;;10.30;6.35;;;;;;;2.24;59.95;101511.88;1749793;81;21219;-69
2021/04/25 02:30:34;;;;;;;12.13;6.25;;;;;;;2.24;60.01;101512.33;1749754;82;21049;-71
2021/04/25 02:33:02;;;;;;;10.48;5.80;;;;;;;2.24;60.20;101516.21;1749775;82;21434;-70
2021/04/25 02:35:30;;;;;;;13.15;6.85;;;;;;;2.23;60.27;101514.06;1749800;82;20954;-70
2021/04/25 02:37:58;;;;;;;13.70;5.55;;;;;;;2.23;60.20;101518.39;1749777;82;21365;-70
2021/04/25 02:40:29;;;;;;;11.45;6.05;;;;;;;2.22;60.17;101515.37;1749765;80;21006;-69
2021/04/25 02:42:58;;;;;;;13.30;5.58;;;;;;;2.22;60.21;101516.25;1749837;82;20923;-68
2021/04/25 02:45:27;;;;;;;11.48;4.97;;;;;;;2.22;60.28;101514.08;1749721;82;21379;-70
2021/04/25 02:47:57;;;;;;;14.20;5.90;;;;;;;2.23;60.15;101521.83;1749771;82;20935;-71
2021/04/25 02:50:32;;;;;;;11.55;6.08;;;;;;;2.23;60.04;101519.69;1749849;82;21608;-71
2021/04/25 02:52:59;;;;;;;;;;;;;;;2.23;59.98;101516.66;1739534;81;20963;-70
2021/04/25 02:55:29;;;;;;;13.40;5.22;;;;;;;2.24;59.98;101514.92;1735820;81;20166;-70
2021/04/25 02:57:58;;;;;;;12.23;6.15;;;;;;;2.25;59.95;101515.36;1735717;81;21782;-71
2021/04/25 03:00:27;;;;;;;13.43;6.58;;;;;;;2.25;59.83;101517.94;1735708;82;21047;-69
2021/04/25 03:02:57;;;;;;;11.88;6.05;;;;;;;2.26;59.79;101517.91;1735753;82;20944;-70
2021/04/25 03:05:26;;;;;;;12.20;6.00;;;;;;;2.27;59.76;101520.93;1735752;81;20991;-70
2021/04/25 03:07:55;;;;;;;11.20;5.83;;;;;;;2.28;59.77;101523.07;1735862;81;21385;-69
2021/04/25 03:10:24;;;;;;;18.48;6.45;;;;;;;2.30;59.64;101520.48;1735701;82;21787;-70
2021/04/25 03:12:53;;;;;;;9.68;6.80;;;;;;;2.32;59.67;101523.46;1735662;81;21054;-71
2021/04/25 03:15:21;;;;;;;14.47;7.25;;;;;;;2.35;59.56;101529.03;1735742;82;20960;-69
2021/04/25 03:17:50;;;;;;;13.00;7.90;;;;;;;2.39;59.54;101529.43;1735697;81;20940;-69
2021/04/25 03:20:21;;;;;;;13.08;6.85;;;;;;;2.41;59.45;101535.00;1735730;81;20936;-68
2021/04/25 03:22:49;;;;;;;18.12;8.65;;;;;;;2.44;59.45;101532.36;1735785;82;21366;-68
2021/04/25 03:25:18;;;;;;;10.32;6.42;;;;;;;2.49;59.47;101534.93;1735707;81;20959;-68
2021/04/25 03:27:46;;;;;;;17.20;6.80;;;;;;;2.54;59.41;101542.64;1735768;82;21059;-69
2021/04/25 03:30:16;;;;;;;17.32;7.17;;;;;;;2.57;59.49;101539.55;1735771;81;20963;-68
2021/04/25 03:32:44;;;;;;;16.45;6.95;;;;;;;2.63;59.59;101542.52;1735712;82;20991;-68
2021/04/25 03:35:14;;;;;;;13.83;6.70;;;;;;;2.68;59.62;101551.94;1735710;82;21371;-69
2021/04/25 03:37:43;;;;;;;14.60;7.40;;;;;;;2.81;59.95;101546.17;1735674;82;21035;-70
2021/04/25 03:40:13;;;;;;;12.53;7.17;;;;;;;3.06;59.78;101541.95;1735702;81;20963;-69
2021/04/25 03:42:42;;;;;;;12.68;8.10;;;;;;;3.35;59.57;101547.16;1735821;81;21527;-69
2021/04/25 03:45:13;;;;;;;20.23;8.05;;;;;;;3.65;59.00;101545.83;1735775;82;20943;-69
2021/04/25 03:47:44;;;;;;;10.35;7.72;;;;;;;3.93;58.34;101553.98;1735906;82;22266;-69
2021/04/25 03:50:15;;;;;;;14.73;9.08;;;;;;;4.15;57.64;101554.01;1735756;82;20960;-71
2021/04/25 03:52:44;;;;;;;21.35;9.98;;;;;;;4.38;56.86;101550.57;1744837;81;21530;-69
2021/04/25 03:55:14;;;;;;;23.95;11.63;;;;;;;4.60;56.15;101541.91;1749673;82;20971;-69
2021/04/25 03:57:42;;;;;;;21.40;11.43;;;;;;;4.88;55.58;101548.70;1749763;82;21058;-69
2021/04/25 04:00:13;;;;;;;21.82;13.90;;;;;;;5.17;55.08;101548.91;1749765;82;21210;-69
2021/04/25 04:02:41;;;;;;;32.08;15.20;;;;;;;5.47;54.12;101560.81;1749730;82;20951;-70
2021/04/25 04:05:11;;;;;;;26.33;13.68;;;;;;;5.81;53.84;101567.80;1749756;82;20935;-70
2021/04/25 04:07:39;;;;;;;22.58;13.65;;;;;;;6.22;53.55;101561.98;1749739;80;20943;-70
2021/04/25 04:10:09;;;;;;;24.40;13.55;;;;;;;6.62;52.70;101565.65;1749752;82;20915;-70
2021/04/25 04:12:38;;;;;;;26.35;14.20;;;;;;;6.97;52.10;101559.88;1749840;82;21444;-69
2021/04/25 04:15:08;;;;;;;26.23;14.65;;;;;;;7.31;51.87;101560.14;1749822;82;21031;-70
2021/04/25 04:17:36;;;;;;;24.82;14.50;;;;;;;7.62;51.19;101559.16;1749898;82;21488;-70
2021/04/25 04:20:06;;;;;;;26.07;16.55;;;;;;;7.85;50.43;101560.58;1749787;80;21003;-70
2021/04/25 04:22:34;;;;;;;28.38;15.83;;;;;;;8.05;50.11;101555.14;1749869;80;20983;-70
2021/04/25 04:25:04;;;;;;;33.05;17.23;;;;;;;8.28;49.96;101559.09;1749846;82;21477;-70
2021/04/25 04:27:31;;;;;;;30.95;18.87;;;;;;;8.52;49.47;101564.39;1749873;82;21377;-70
2021/04/25 04:30:00;;;;;;;31.27;20.62;;;;;;;8.81;48.71;101562.47;1749833;82;20959;-69
2021/04/25 04:32:29;;;;;;;38.40;22.70;;;;;;;9.11;48.62;101563.92;1749788;80;20943;-70
2021/04/25 04:34:57;;;;;;;38.05;23.55;;;;;;;9.49;47.99;101559.37;1749866;82;21005;-71
2021/04/25 04:37:26;;;;;;;27.25;17.35;;;;;;;9.90;46.95;101564.70;1749857;82;21371;-71
2021/04/25 04:39:55;;;;;;;26.75;16.20;;;;;;;10.27;45.51;101569.22;1749903;82;21571;-71
2021/04/25 04:42:23;;;;;;;32.67;16.97;;;;;;;10.59;43.86;101565.66;1749846;82;21118;-70
2021/04/25 04:44:51;;;;;;;29.15;14.60;;;;;;;10.90;43.43;101563.80;1749824;82;20923;-69
2021/04/25 04:47:20;;;;;;;28.40;13.70;;;;;;;11.27;42.93;101556.84;1749834;80;21496;-70
2021/04/25 04:49:48;;;;;;;25.17;13.68;;;;;;;11.72;42.83;101561.23;1749959;82;22334;-70
2021/04/25 04:52:16;;;;;;;29.00;18.82;;;;;;;12.23;41.93;101560.87;1749726;81;20963;-72
2021/04/25 04:54:45;;;;;;;38.88;18.40;;;;;;;12.70;40.09;101561.45;1749780;82;20960;-71
2021/04/25 04:57:15;;;;;;;37.13;19.23;;;;;;;13.10;39.60;101563.22;1749796;82;20959;-72
2021/04/25 04:59:43;;;;;;;33.90;20.65;;;;;;;13.50;40.06;101555.73;1749952;82;21022;-70
2021/04/25 05:02:12;;;;;;;35.33;19.48;;;;;;;13.93;38.72;101561.14;1749889;82;22695;-72
2021/04/25 05:04:40;;;;;;;25.00;17.27;;;;;;;14.29;38.35;101558.55;1749855;82;21500;-71
2021/04/25 05:07:09;;;;;;;24.57;16.32;;;;;;;14.60;37.31;101561.52;1749817;82;20939;-70
2021/04/25 05:09:38;;;;;;;26.23;17.57;;;;;;;14.91;36.43;101560.92;1749767;80;20919;-71
2021/04/25 05:12:08;;;;;;;26.97;17.10;;;;;;;15.18;36.20;101552.19;1749823;82;20971;-72
2021/04/25 05:14:36;;;;;;;25.88;17.20;;;;;;;15.73;35.15;101553.41;1749873;82;21189;-71
2021/04/25 05:17:04;;;;;;;24.12;16.15;;;;;;;15.73;35.15;101553.41;1749736;82;21010;-72
2021/04/25 05:19:33;;;;;;;22.77;15.25;;;;;;;15.95;35.14;101552.81;1749808;82;21650;-72
2021/04/25 05:22:01;;;;;;;23.87;14.18;;;;;;;16.25;35.11;101553.00;1749748;82;20896;-70
2021/04/25 05:24:29;;;;;;;20.90;13.80;;;;;;;16.55;33.83;101553.98;1749933;80;21010;-70
2021/04/25 05:26:57;;;;;;;16.70;10.75;;;;;;;16.77;33.41;101548.01;1749845;82;21368;-84
2021/04/25 05:29:26;;;;;;;18.02;11.18;;;;;;;16.97;33.97;101541.31;1749830;80;21022;-85
2021/04/25 05:31:54;;;;;;;23.02;14.43;;;;;;;17.27;33.43;101542.67;1749953;80;20999;-85
2021/04/25 05:34:23;;;;;;;21.48;13.72;;;;;;;17.58;32.30;101540.40;1740948;82;21046;-85
2021/04/25 05:36:53;;;;;;;19.60;13.18;;;;;;;17.84;32.25;101533.66;1719944;83;20978;-86
2021/04/25 05:39:22;;;;;;;18.37;11.18;;;;;;;18.08;30.86;101538.41;1720014;82;21208;-85
2021/04/25 05:41:51;;;;;;;20.52;12.37;;;;;;;18.26;30.31;101540.61;1720584;83;20978;-86
2021/04/25 05:44:22;;;;;;;14.60;10.68;;;;;;;18.36;29.51;101536.25;1719992;83;21101;-83
2021/04/25 05:46:51;;;;;;;16.10;11.05;;;;;;;18.55;29.38;101532.52;1720015;83;21333;-88
2021/04/25 05:49:19;;;;;;;23.35;13.35;;;;;;;18.54;28.92;101538.81;1719950;82;20955;-83
2021/04/25 05:51:47;;;;;;;26.45;14.63;;;;;;;18.60;29.17;101528.16;1720653;83;22098;-85
2021/04/25 05:54:15;;;;;;;19.95;10.98;;;;;;;18.70;29.34;101525.60;1720067;82;21061;-85
2021/04/25 05:56:45;;;;;;;16.75;9.00;;;;;;;18.92;29.07;101522.97;1719983;83;21560;-87
2021/04/25 05:59:13;;;;;;;11.70;7.75;;;;;;;19.08;28.15;101520.40;1720315;83;21054;-88
2021/04/25 06:01:42;;;;;;;15.68;10.00;;;;;;;19.26;27.66;101523.70;1719992;83;21042;-87
2021/04/25 06:04:11;;;;;;;13.08;8.45;;;;;;;19.38;26.93;101520.50;1694855;83;22141;-88
2021/04/25 06:06:42;;;;;;;10.28;6.97;;;;;;;19.41;27.14;101522.93;1721571;82;20943;-84
2021/04/25 06:09:12;;;;;;;11.68;5.65;;;;;;;19.62;28.15;101522.10;1721704;82;21065;-88
2021/04/25 06:11:40;;;;;;;9.83;4.03;;;;;;;19.85;26.78;101520.18;1720870;83;20954;-87
2021/04/25 06:14:08;;;;;;;8.28;3.70;;;;;;;20.06;25.80;101515.69;1720421;83;20927;-87
2021/04/25 06:16:37;;;;;;;8.05;5.15;;;;;;;20.23;25.59;101516.91;1720052;82;21205;-88
2021/04/25 06:19:05;;;;;;;13.18;5.97;;;;;;;20.45;25.47;101519.88;1720092;82;21026;-86
2021/04/25 06:21:34;;;;;;;8.60;4.87;;;;;;;20.57;24.18;101524.65;1719941;82;21042;-82
2021/04/25 06:24:03;;;;;;;11.93;5.25;;;;;;;20.61;23.94;101527.40;1719927;82;21081;-83
2021/04/25 06:26:32;;;;;;;8.58;5.28;;;;;;;20.65;24.83;101527.95;1720176;82;20915;-84
2021/04/25 06:29:01;;;;;;;12.88;5.00;;;;;;;20.68;24.50;101523.70;1720018;83;21371;-81
2021/04/25 06:31:30;;;;;;;6.83;3.80;;;;;;;20.72;25.00;101525.13;1719897;83;21528;-81
2021/04/25 06:33:58;;;;;;;8.55;4.25;;;;;;;20.85;24.58;101523.52;1719941;83;21509;-79
2021/04/25 06:36:26;;;;;;;6.78;4.00;;;;;;;20.99;24.06;101527.64;1719961;83;21002;-80
2021/04/25 06:38:54;;;;;;;6.65;3.70;;;;;;;21.03;23.48;101523.69;1719927;83;21010;-82
2021/04/25 06:41:23;;;;;;;4.60;3.27;;;;;;;21.21;23.69;101518.05;1719969;83;21487;-79
2021/04/25 06:43:51;;;;;;;11.53;4.62;;;;;;;21.31;23.75;101522.05;1719859;83;20919;-77
2021/04/25 06:46:21;;;;;;;4.83;3.10;;;;;;;21.45;23.49;101518.97;1719862;82;20943;-78
2021/04/25 06:48:49;;;;;;;8.30;3.02;;;;;;;21.53;22.73;101517.78;1719956;83;21360;-79
2021/04/25 06:51:17;;;;;;;4.83;3.08;;;;;;;21.70;21.96;101518.06;1719983;83;21721;-79
2021/04/25 06:53:45;;;;;;;10.63;3.60;;;;;;;21.89;22.06;101514.50;1710970;83;21826;-80
2021/04/25 06:56:14;;;;;;;4.87;2.62;;;;;;;22.13;22.67;101516.19;1706381;83;21496;-79
2021/04/25 06:58:43;;;;;;;5.50;2.70;;;;;;;22.32;22.12;101519.80;1706374;84;21039;-78
2021/04/25 07:01:11;;;;;;;4.28;2.70;;;;;;;22.41;21.33;101515.41;1706274;83;20977;-79
2021/04/25 07:03:39;;;;;;;4.28;2.72;;;;;;;22.38;22.30;101509.86;1706451;83;20951;-77
2021/04/25 07:06:08;;;;;;;4.42;2.55;;;;;;;22.42;21.46;101516.61;1706799;84;22146;-79
2021/04/25 07:08:36;;;;;;;6.55;2.45;;;;;;;22.31;21.21;101517.63;1706376;83;21130;-71
2021/04/25 07:11:05;;;;;;;4.17;2.85;;;;;;;22.38;22.49;101515.20;1706314;84;20968;-68
2021/04/25 07:13:34;;;;;;;4.35;2.52;;;;;;;22.54;22.16;101516.77;1706275;83;21015;-70
2021/04/25 07:16:02;;;;;;;3.17;2.50;;;;;;;22.59;21.41;101519.00;1706361;82;20976;-71
2021/04/25 07:18:31;;;;;;;2.50;2.30;;;;;;;22.60;20.41;101512.64;1706329;84;21379;-70
2021/04/25 07:21:00;;;;;;;4.10;2.95;;;;;;;22.30;20.88;101517.30;1706228;82;20956;-69
2021/04/25 07:23:28;;;;;;;4.25;3.12;;;;;;;22.23;21.28;101512.66;1706353;83;20977;-70
2021/04/25 07:25:58;;;;;;;3.52;2.95;;;;;;;22.35;21.99;101506.16;1705210;84;21752;-72
2021/04/25 07:28:26;;;;;;;3.70;2.30;;;;;;;22.32;21.50;101507.77;1706307;84;20987;-70
2021/04/25 07:30:54;;;;;;;4.20;3.20;;;;;;;22.06;20.85;101504.91;1706402;82;22005;-72
2021/04/25 07:33:22;;;;;;;5.33;2.30;;;;;;;21.88;21.28;101502.98;1706380;84;21058;-80
2021/04/25 07:35:50;;;;;;;4.17;2.70;;;;;;;21.96;22.79;101502.24;1706318;82;20959;-72
2021/04/25 07:38:19;;;;;;;4.10;2.65;;;;;;;22.10;22.35;101499.62;1706377;83;21518;-71
2021/04/25 07:40:46;;;;;;;3.10;2.35;;;;;;;22.17;21.77;101510.57;1706425;82;21552;-70
2021/04/25 07:43:15;;;;;;;3.50;2.70;;;;;;;22.30;21.56;101495.91;1706270;84;21373;-70
2021/04/25 07:45:43;;;;;;;4.62;2.45;;;;;;;22.48;21.81;101501.82;1706272;84;21575;-69
2021/04/25 07:48:11;;;;;;;3.62;2.70;;;;;;;22.65;21.51;101492.98;1706401;82;20952;-70
2021/04/25 07:50:40;;;;;;;3.67;2.85;;;;;;;22.92;21.79;101493.93;1706311;84;21051;-82
2021/04/25 07:53:08;;;;;;;3.00;2.30;;;;;;;23.22;22.40;101490.59;1709726;83;20923;-81
2021/04/25 07:55:38;;;;;;;4.65;2.98;;;;;;;23.40;21.30;101481.20;1719904;83;21526;-82
2021/04/25 07:58:09;;;;;;;2.75;2.55;;;;;;;23.48;20.60;101491.99;1720097;82;21377;-89
2021/04/25 08:00:38;;;;;;;3.12;1.77;;;;;;;23.59;21.84;101489.89;1720147;83;20971;-80
2021/04/25 08:03:07;;;;;;;2.83;1.70;;;;;;;23.88;20.45;101492.80;1720066;82;20908;-83
2021/04/25 08:07:45;;;;;;;2.70;2.00;;;;;;;24.14;20.97;101479.87;1777236;79;22540;-83
2021/04/25 08:10:14;;;;;;;3.60;1.50;;;;;;;24.07;19.90;101496.25;1749862;81;21349;-83
2021/04/25 08:12:43;;;;;;;3.65;2.20;;;;;;;23.72;19.89;101483.27;1749984;82;21569;-85
2021/04/25 08:15:12;;;;;;;2.95;2.33;;;;;;;23.47;19.23;101480.42;1749739;80;20955;-84
2021/04/25 08:17:41;;;;;;;1.55;1.15;;;;;;;23.28;19.52;101485.97;1749823;80;21385;-86
2021/04/25 08:20:12;;;;;;;1.82;1.52;;;;;;;23.30;19.84;101481.27;1749688;80;21071;-84
2021/04/25 08:22:40;;;;;;;1.67;1.35;;;;;;;23.25;20.11;101475.55;1749661;82;21022;-85
2021/04/25 08:25:09;;;;;;;2.22;1.65;;;;;;;23.19;20.39;101469.00;1749829;80;21358;-84
2021/04/25 08:27:38;;;;;;;2.05;1.85;;;;;;;23.23;20.75;101471.68;1749745;80;21373;-76
2021/04/25 08:30:07;;;;;;;2.00;1.75;;;;;;;23.42;20.48;101463.98;1749709;82;21026;-79
2021/04/25 08:32:35;;;;;;;1.82;1.55;;;;;;;23.57;19.86;101468.30;1749607;81;21357;-80
2021/04/25 08:35:05;;;;;;;2.55;1.72;;;;;;;23.71;20.00;101465.53;1749609;81;20927;-83
2021/04/25 08:37:34;;;;;;;2.20;1.65;;;;;;;23.71;20.09;101461.01;1749687;82;22355;-71
2021/04/25 08:40:04;;;;;;;2.95;2.20;;;;;;;23.80;19.77;101447.20;1749476;82;20919;-70
2021/04/25 08:42:32;;;;;;;5.50;2.85;;;;;;;23.58;19.74;101452.05;1749620;81;20903;-71
2021/04/25 08:45:02;;;;;;;4.65;3.12;;;;;;;23.16;19.66;101451.89;1749498;80;20995;-70
2021/04/25 08:47:31;;;;;;;4.78;2.83;;;;;;;22.89;19.97;101449.61;1749679;82;21464;-70
2021/04/25 08:50:01;;;;;;;3.08;2.77;;;;;;;22.83;20.26;101448.04;1749295;82;21198;-70
2021/04/25 08:52:29;;;;;;;5.05;3.25;;;;;;;22.81;20.54;101446.87;1749351;80;21002;-71
2021/04/25 08:54:57;;;;;;;5.35;3.00;;;;;;;22.91;20.78;101446.28;1749566;82;20954;-73
2021/04/25 08:57:25;;;;;;;3.20;2.77;;;;;;;23.04;20.81;101445.11;1749608;81;20951;-71
2021/04/25 08:59:54;;;;;;;2.90;1.70;;;;;;;23.12;20.28;101443.35;1749550;80;20923;-71
2021/04/25 09:02:22;;;;;;;2.83;1.50;;;;;;;23.14;20.33;101437.82;1749563;82;21815;-72
2021/04/25 09:04:50;;;;;;;1.70;1.60;;;;;;;22.83;20.41;101437.34;1749556;80;21010;-72
2021/04/25 09:07:23;;;;;;;4.05;2.52;;;;;;;22.57;20.32;101438.09;1749665;80;21072;-71
2021/04/25 09:09:55;;;;;;;7.83;3.30;;;;;;;22.45;20.43;101434.77;1750349;82;21010;-71
2021/04/25 09:12:40;;;;;;;5.53;2.37;;;;;;;22.46;20.71;101423.10;1750090;81;20947;-70
2021/04/25 09:15:18;;;;;;;3.40;2.17;;;;;;;22.64;20.53;101423.63;1749996;82;21813;-71
2021/04/25 09:17:55;;;;;;;4.50;1.62;;;;;;;22.70;19.81;101417.18;1750062;82;20935;-70
2021/04/25 09:20:44;;;;;;;2.50;1.80;;;;;;;22.55;20.02;101406.16;1749813;82;20939;-70
2021/04/25 09:23:22;;;;;;;2.42;1.95;;;;;;;22.23;20.71;101413.80;1749793;82;21667;-70
2021/04/25 09:26:06;;;;;;;3.60;1.90;;;;;;;21.90;21.01;101406.70;1749833;82;21572;-70
2021/04/25 09:28:36;;;;;;;1.70;1.50;;;;;;;21.61;21.07;101400.10;1749906;80;21367;-71
2021/04/25 09:31:14;;;;;;;3.42;1.60;;;;;;;21.45;20.64;101400.20;1749745;82;20959;-74
2021/04/25 09:33:51;;;;;;;9.48;3.98;;;;;;;21.30;21.75;101394.47;1749574;82;21010;-73
2021/04/25 09:36:22;;;;;;;4.00;1.90;;;;;;;21.06;21.28;101398.91;1749727;82;21023;-73
2021/04/25 09:38:54;;;;;;;4.70;2.42;;;;;;;20.77;20.92;101396.25;1749765;82;21014;-73
2021/04/25 09:41:32;;;;;;;1.50;1.40;;;;;;;20.73;20.80;101396.17;1749824;82;21379;-76
2021/04/25 09:44:01;;;;;;;3.08;1.62;;;;;;;20.84;21.18;101389.37;1749623;82;21552;-72
2021/04/25 09:46:55;;;;;;;5.47;2.33;;;;;;;20.68;20.46;101393.09;1749899;82;20963;-73
2021/04/25 09:49:46;;;;;;;2.92;2.20;;;;;;;20.53;20.27;101384.62;1749787;82;21568;-73
2021/04/25 09:52:28;;;;;;;2.92;2.37;;;;;;;20.46;21.27;101373.67;1749836;82;20952;-73
2021/04/25 09:55:18;;;;;;;2.52;2.17;;;;;;;20.61;22.23;101368.82;1749684;82;22386;-74
2021/04/25 09:57:48;;;;;;;6.87;2.33;;;;;;;20.94;22.67;101376.52;1749662;82;21575;-72
2021/04/25 10:00:17;;;;;;;4.90;2.00;;;;;;;21.06;21.39;101383.41;1749771;82;21038;-75
2021/04/25 10:03:10;;;;;;;2.42;1.50;;;;;;;21.32;20.07;101379.63;1749920;82;21314;-78
2021/04/25 10:05:59;;;;;;;2.15;1.70;;;;;;;21.41;21.04;101376.63;1750516;80;21007;-74
2021/04/25 10:08:38;;;;;;;3.27;1.85;;;;;;;21.18;20.47;101372.92;1749943;82;22120;-73
2021/04/25 10:11:07;;;;;;;4.10;2.58;;;;;;;20.88;21.00;101377.95;1749869;82;20974;-73
2021/04/25 10:13:45;;;;;;;3.12;1.85;;;;;;;20.74;21.03;101377.02;1749787;82;20912;-73
2021/04/25 10:16:09;;;;;;;3.17;1.52;;;;;;;20.59;21.30;101375.27;1749526;82;21006;-76
2021/04/25 10:18:38;;;;;;;4.62;2.58;;;;;;;20.39;21.90;101372.55;1749874;81;20987;-75
2021/04/25 10:21:07;;;;;;;5.65;2.25;;;;;;;20.08;21.89;101371.27;1749829;80;21615;-74
2021/04/25 10:23:36;;;;;;;3.37;2.10;;;;;;;19.82;22.75;101372.72;1749762;82;20919;-74
2021/04/25 10:26:14;;;;;;;2.65;2.02;;;;;;;19.69;22.27;101370.27;1749813;82;21386;-74
2021/04/25 10:29:04;;;;;;;3.45;2.10;;;;;;;19.51;23.72;101371.34;1749887;80;21488;-75
2021/04/25 10:31:35;;;;;;;3.22;2.00;;;;;;;19.55;23.15;101362.63;1749778;80;20959;-72
2021/04/25 10:34:07;;;;;;;3.52;1.62;;;;;;;19.53;22.88;101353.44;1749909;82;21325;-72
2021/04/25 10:36:56;;;;;;;4.92;1.90;;;;;;;19.36;21.90;101350.05;1748052;82;20950;-80
2021/04/25 10:39:55;;;;;;;3.95;2.77;;;;;;;19.19;22.65;101352.83;1749805;82;20935;-72
2021/04/25 10:42:25;;;;;;;;;;;;;;;18.94;23.07;101354.90;1751160;82;20963;-72
2021/04/25 10:45:07;;;;;;;32.63;22.87;;;;;;;18.81;23.38;101356.41;1749828;80;20402;-73
2021/04/25 10:47:41;;;;;;;22.40;18.55;;;;;;;18.70;23.03;101352.44;1749832;82;21417;-72
2021/04/25 10:50:29;;;;;;;6.00;3.67;;;;;;;18.91;24.10;101348.49;1749624;82;20998;-73
2021/04/25 10:53:01;;;;;;;5.62;2.90;;;;;;;18.97;23.58;101342.67;1749790;82;20998;-72
2021/04/25 10:55:32;;;;;;;5.90;2.80;;;;;;;19.24;23.58;101346.13;1721474;82;21010;-76
2021/04/25 10:58:11;;;;;;;3.15;2.20;;;;;;;19.51;24.41;101342.58;1749751;82;21488;-72
2021/04/25 11:00:41;;;;;;;3.85;2.22;;;;;;;19.76;23.46;101342.64;1749723;82;21362;-75
2021/04/25 11:03:20;;;;;;;3.17;2.12;;;;;;;20.06;23.75;101331.12;1749688;82;20991;-73
2021/04/25 11:05:51;;;;;;;3.22;2.42;;;;;;;20.40;23.17;101336.91;1749760;82;21469;-74
2021/04/25 11:08:39;;;;;;;4.60;1.92;;;;;;;20.72;22.05;101331.00;1749560;81;21054;-73
2021/04/25 11:11:13;;;;;;;4.53;2.92;;;;;;;20.82;21.23;101330.02;1749737;82;21173;-71
2021/04/25 11:13:46;;;;;;;6.65;2.90;;;;;;;20.78;21.36;101331.77;1749782;80;22052;-75
2021/04/25 11:16:24;;;;;;;5.50;2.70;;;;;;;20.69;21.03;101337.45;1749726;82;20947;-72
2021/04/25 11:19:07;;;;;;;4.37;2.37;;;;;;;20.60;21.79;101329.81;1749810;80;20951;-73
2021/04/25 11:21:49;;;;;;;4.85;2.12;;;;;;;20.60;22.57;101332.97;1749773;82;20919;-71
2021/04/25 11:24:19;;;;;;;3.20;2.75;;;;;;;20.58;22.12;101330.94;1748782;82;20947;-73
2021/04/25 11:26:51;;;;;;;3.80;2.80;;;;;;;20.44;22.73;101330.33;1749745;80;22058;-74
2021/04/25 11:29:30;;;;;;;3.80;2.50;;;;;;;20.23;23.31;101321.14;1749707;82;20990;-72
2021/04/25 11:32:00;;;;;;;7.42;3.22;;;;;;;20.09;22.97;101321.52;1749719;82;20998;-75
2021/04/25 11:34:37;;;;;;;2.70;2.10;;;;;;;19.86;23.53;101319.57;1749676;80;20987;-74
2021/04/25 11:37:15;;;;;;;3.40;2.42;;;;;;;19.64;22.39;101321.91;1749809;80;21492;-74
2021/04/25 11:39:53;;;;;;;4.20;2.35;;;;;;;19.35;22.04;101311.14;1749686;82;21430;-74
2021/04/25 11:42:48;;;;;;;4.75;2.80;;;;;;;19.08;22.40;101311.20;1749503;82;21038;-74